Airports Turkey Milas Bodrum International Airport

Milas Bodrum International Airport (LTFE / BJV)

Facts about Milas Bodrum International Airport

Name Milas Bodrum International Airport
City Bodrum
Country Turkey
ICAO code LTFE
IATA code BJV
Elevation 6.4008 meters (21 feet)

Weather

METAR

Metar data retrieved Saturday, 20 July 2024 at 00:55 UTC (14 minutes ago)

LTFE 200020Z 09003KT 030V120 CAVOK 22/18 Q1002 NOSIG RMK RWY10 VRB01KT

Live traffic

Navigraph Charts (account required)